KCKB/CKB METAR and TAF weather

Enter ICAO airport designator
Station Type Date Time Source
KCKB METAR 2020/07/09 17:53 UTC NOAA

KCKB 091753Z RMK AO2 SLPNO RVRNO $


Station Type Date Time Source
KCKB Decoded METAR 2020/07/09 17:53 UTC NOAA

HARRISON/MARION REGIONAL, WV, United States (KCKB) 39-18N 080-13W 360M
Jul 09, 2020 - 01:53 PM EDT / 2020.07.09 1753 UTC
ob: KCKB 091753Z RMK AO2 SLPNO RVRNO
cycle: 18

Station Type Date Time Source
KCKB TAF 2020/07/09 18:30 UTC NOAA

TAF KCKB 091727Z 0918/1018 00000KT P6SM FEW250
FM092000 VRB03KT P6SM VCTS FEW250CB
FM100000 VRB03KT P6SM FEW250
FM100900 00000KT 6SM BR FEW180

Example: see airport list